Terminal Aerodrome Forecast
Issued by NWS Wilmington, OH

Current Version | Previous Version | Graphics & Text | Print | Product List | Glossary On
Versions: 1 2 3 4 5 6 7 8 9 10 11 12 13 14 15 16 17 18 19 20 21 22 23 24 25 26
408
FTUS41 KILN 231427 AAB
TAFCVG
TAF AMD
KCVG 231427Z 2314/2418 26005KT P6SM VCTS SCT025 OVC040CB
      TEMPO 2314/2317 4SM TSRA BR OVC025CB
     FM232300 29006KT P6SM VCSH BKN040
     FM240200 26004KT P6SM SCT035
     FM240600 00000KT 4SM BR FEW035
     FM241300 27006KT P6SM SCT025=

USA.gov is the U.S. government's official web portal to all federal, state and local government web resources and services.